Time,TemperatureF,DewpointF,PressureIn,WindDirection,WindDirectionDegrees,WindSpeedMPH,WindSpeedGustMPH,Humidity,HourlyPrecipIn,Conditions,Clouds,dailyrainin,SoftwareType,DateUTC
2013-01-01 00:01:00,56.5,54.6,29.73,North,0,0.0,0.7,93,0.01,,,0.00,WUHU216HW,2013-01-01 06:01:00,
2013-01-01 00:06:00,56.3,54.4,29.73,North,0,0.9,0.9,93,0.01,,,0.00,WUHU216HW,2013-01-01 06:06:00,
2013-01-01 00:11:00,56.5,54.6,29.72,NE,45,1.6,2.0,93,0.02,,,0.01,WUHU216HW,2013-01-01 06:11:00,
2013-01-01 00:16:00,56.5,54.6,29.73,NE,45,0.0,2.0,93,0.02,,,0.01,WUHU216HW,2013-01-01 06:16:00,
2013-01-01 00:21:00,56.5,54.6,29.72,NE,45,0.0,1.6,93,0.02,,,0.01,WUHU216HW,2013-01-01 06:21:00,
2013-01-01 00:26:00,56.5,54.6,29.72,NE,45,0.0,0.2,93,0.02,,,0.01,WUHU216HW,2013-01-01 06:26:00,
2013-01-01 00:31:00,56.5,54.6,29.72,NE,45,0.0,0.4,93,0.02,,,0.01,WUHU216HW,2013-01-01 06:31:00,
2013-01-01 00:36:00,56.5,54.6,29.72,East,90,1.3,1.3,93,0.01,,,0.01,WUHU216HW,2013-01-01 06:36:00,
2013-01-01 00:41:00,56.5,54.6,29.72,SE,135,1.8,2.5,93,0.01,,,0.01,WUHU216HW,2013-01-01 06:41:00,
2013-01-01 00:46:00,56.5,54.6,29.73,SE,135,1.1,2.7,93,0.01,,,0.01,WUHU216HW,2013-01-01 06:46:00,
2013-01-01 00:51:00,56.5,54.6,29.73,SE,135,0.2,2.7,93,0.01,,,0.01,WUHU216HW,2013-01-01 06:51:00,
2013-01-01 00:56:00,56.5,54.8,29.73,SE,135,0.0,1.8,94,0.01,,,0.01,WUHU216HW,2013-01-01 06:56:00,
2013-01-01 01:01:00,56.5,54.6,29.73,SE,135,0.4,0.9,93,0.02,,,0.02,WUHU216HW,2013-01-01 07:01:00,
2013-01-01 01:06:00,56.5,54.6,29.73,SW,225,0.2,1.1,93,0.02,,,0.02,WUHU216HW,2013-01-01 07:06:00,
2013-01-01 01:11:00,56.5,54.6,29.73,SSW,203,0.7,1.1,93,0.01,,,0.02,WUHU216HW,2013-01-01 07:11:00,
2013-01-01 01:16:00,56.5,54.6,29.73,SSE,158,0.4,0.9,93,0.01,,,0.02,WUHU216HW,2013-01-01 07:16:00,
2013-01-01 01:21:00,56.5,54.6,29.73,SSE,158,0.0,0.9,93,0.01,,,0.02,WUHU216HW,2013-01-01 07:21:00,
2013-01-01 01:26:00,56.5,54.6,29.72,ESE,113,0.0,0.4,93,0.01,,,0.02,WUHU216HW,2013-01-01 07:26:00,
2013-01-01 01:31:00,56.5,54.6,29.73,WSW,248,0.7,1.3,93,0.01,,,0.02,WUHU216HW,2013-01-01 07:31:00,
2013-01-01 01:36:00,56.5,54.6,29.73,North,0,0.4,1.3,93,0.01,,,0.02,WUHU216HW,2013-01-01 07:36:00,
2013-01-01 01:41:00,56.5,54.6,29.73,NE,45,0.9,1.1,93,0.01,,,0.02,WUHU216HW,2013-01-01 07:41:00,
2013-01-01 01:46:00,56.5,54.8,29.73,ESE,113,0.9,1.8,94,0.01,,,0.02,WUHU216HW,2013-01-01 07:46:00,
2013-01-01 01:51:00,56.5,54.6,29.73,SE,135,2.7,2.7,93,0.01,,,0.02,WUHU216HW,2013-01-01 07:51:00,
2013-01-01 01:56:00,56.3,54.6,29.73,ESE,113,1.8,2.9,94,0.00,,,0.02,WUHU216HW,2013-01-01 07:56:00,
2013-01-01 02:01:00,56.3,54.6,29.73,East,90,3.4,3.4,94,0.00,,,0.02,WUHU216HW,2013-01-01 08:01:00,
2013-01-01 02:06:00,56.2,54.5,29.72,NNW,338,0.9,3.4,94,0.00,,,0.02,WUHU216HW,2013-01-01 08:06:00,
2013-01-01 02:11:00,56.2,54.5,29.73,NNW,338,0.0,3.4,94,0.00,,,0.02,WUHU216HW,2013-01-01 08:11:00,
2013-01-01 02:16:00,56.2,54.5,29.72,NE,45,1.1,2.2,94,0.00,,,0.02,WUHU216HW,2013-01-01 08:16:00,
2013-01-01 02:21:00,56.2,54.5,29.72,NE,45,2.7,2.7,94,0.00,,,0.02,WUHU216HW,2013-01-01 08:21:00,
2013-01-01 02:26:00,56.0,54.3,29.72,SE,135,0.9,2.7,94,0.00,,,0.02,WUHU216HW,2013-01-01 08:26:00,
2013-01-01 02:31:00,56.0,54.3,29.72,East,90,0.9,2.0,94,0.00,,,0.02,WUHU216HW,2013-01-01 08:31:00,
2013-01-01 02:36:00,56.0,54.3,29.72,ENE,68,1.8,3.4,94,0.00,,,0.02,WUHU216HW,2013-01-01 08:36:00,
2013-01-01 02:41:00,55.8,54.1,29.72,ENE,68,3.4,4.7,94,0.00,,,0.02,WUHU216HW,2013-01-01 08:41:00,
2013-01-01 02:46:00,55.8,54.1,29.72,NNE,23,0.7,4.7,94,0.00,,,0.02,WUHU216HW,2013-01-01 08:46:00,
2013-01-01 02:51:00,55.8,54.1,29.72,NE,45,1.6,3.8,94,0.00,,,0.02,WUHU216HW,2013-01-01 08:51:00,
2013-01-01 02:56:00,55.8,54.1,29.72,NE,45,1.3,3.6,94,0.00,,,0.02,WUHU216HW,2013-01-01 08:56:00,
2013-01-01 03:01:00,55.6,53.9,29.72,NE,45,0.4,3.1,94,0.00,,,0.02,WUHU216HW,2013-01-01 09:01:00,
2013-01-01 03:06:00,55.6,53.9,29.73,NNW,338,0.0,3.1,94,0.00,,,0.02,WUHU216HW,2013-01-01 09:06:00,
2013-01-01 03:11:00,55.6,53.9,29.73,ESE,113,0.4,1.6,94,0.00,,,0.02,WUHU216HW,2013-01-01 09:11:00,
2013-01-01 03:16:00,55.6,53.9,29.73,NE,45,0.4,1.6,94,0.00,,,0.02,WUHU216HW,2013-01-01 09:16:00,
2013-01-01 03:21:00,55.6,53.9,29.73,NNE,23,1.3,2.0,94,0.01,,,0.03,WUHU216HW,2013-01-01 09:21:00,
2013-01-01 03:26:00,55.4,53.7,29.74,North,0,2.0,3.4,94,0.01,,,0.03,WUHU216HW,2013-01-01 09:26:00,
2013-01-01 03:31:00,55.4,53.7,29.74,NNE,23,3.4,3.4,94,0.01,,,0.03,WUHU216HW,2013-01-01 09:31:00,
2013-01-01 03:36:00,55.4,53.7,29.75,North,0,2.5,5.1,94,0.01,,,0.03,WUHU216HW,2013-01-01 09:36:00,
2013-01-01 03:41:00,55.4,54.0,29.76,NNE,23,4.5,9.6,95,0.01,,,0.03,WUHU216HW,2013-01-01 09:41:00,
2013-01-01 03:46:00,55.3,53.8,29.78,NNE,23,8.5,10.5,95,0.01,,,0.03,WUHU216HW,2013-01-01 09:46:00,
2013-01-01 03:51:00,55.1,53.6,29.79,NNE,23,5.4,10.5,95,0.01,,,0.03,WUHU216HW,2013-01-01 09:51:00,
2013-01-01 03:56:00,55.1,53.6,29.78,NNE,23,9.6,10.7,95,0.03,,,0.05,WUHU216HW,2013-01-01 09:56:00,
2013-01-01 04:01:00,54.9,53.5,29.78,NE,45,4.9,10.7,95,0.08,,,0.10,WUHU216HW,2013-01-01 10:01:00,
2013-01-01 04:06:00,54.7,53.3,29.78,NE,45,4.7,9.6,95,0.09,,,0.11,WUHU216HW,2013-01-01 10:06:00,
2013-01-01 04:11:00,54.4,52.9,29.78,NNE,23,10.5,10.5,95,0.09,,,0.11,WUHU216HW,2013-01-01 10:11:00,
2013-01-01 04:16:00,54.0,52.6,29.77,NE,45,5.4,11.2,95,0.08,,,0.11,WUHU216HW,2013-01-01 10:16:00,
2013-01-01 04:21:00,53.6,52.2,29.77,ENE,68,2.9,11.2,95,0.08,,,0.11,WUHU216HW,2013-01-01 10:21:00,
2013-01-01 04:26:00,53.1,51.4,29.78,NE,45,6.3,10.1,94,0.08,,,0.11,WUHU216HW,2013-01-01 10:26:00,
2013-01-01 04:31:00,52.6,50.6,29.78,NNE,23,5.4,12.8,93,0.08,,,0.11,WUHU216HW,2013-01-01 10:31:00,
2013-01-01 04:36:00,52.2,50.2,29.77,NE,45,4.7,12.8,93,0.08,,,0.11,WUHU216HW,2013-01-01 10:36:00,
2013-01-01 04:41:00,51.8,50.1,29.78,ENE,68,7.8,11.2,94,0.08,,,0.11,WUHU216HW,2013-01-01 10:41:00,
2013-01-01 04:46:00,51.5,49.5,29.79,NE,45,8.5,12.3,93,0.08,,,0.11,WUHU216HW,2013-01-01 10:46:00,
2013-01-01 04:51:00,51.1,49.2,29.79,East,90,5.8,12.3,93,0.08,,,0.11,WUHU216HW,2013-01-01 10:51:00,
2013-01-01 04:56:00,50.9,49.0,29.79,North,0,1.1,10.5,93,0.02,,,0.11,WUHU216HW,2013-01-01 10:56:00,
2013-01-01 05:01:00,50.8,48.8,29.79,East,90,4.7,9.6,93,0.01,,,0.11,WUHU216HW,2013-01-01 11:01:00,
2013-01-01 05:06:00,50.4,48.4,29.79,NNE,23,4.7,9.6,93,0.00,,,0.11,WUHU216HW,2013-01-01 11:06:00,
2013-01-01 05:11:00,50.2,48.3,29.79,NNE,23,6.7,7.8,93,0.00,,,0.11,WUHU216HW,2013-01-01 11:11:00,
2013-01-01 05:16:00,50.0,48.1,29.79,NNE,23,3.8,7.8,93,0.00,,,0.11,WUHU216HW,2013-01-01 11:16:00,
2013-01-01 05:21:00,50.0,48.1,29.79,NE,45,3.6,7.6,93,0.00,,,0.11,WUHU216HW,2013-01-01 11:21:00,
2013-01-01 05:26:00,50.0,48.1,29.79,ENE,68,1.8,6.3,93,0.00,,,0.11,WUHU216HW,2013-01-01 11:26:00,
2013-01-01 05:31:00,49.9,47.9,29.79,NE,45,2.9,8.5,93,0.00,,,0.11,WUHU216HW,2013-01-01 11:31:00,
2013-01-01 05:36:00,49.7,47.7,29.80,ESE,113,3.4,8.5,93,0.00,,,0.11,WUHU216HW,2013-01-01 11:36:00,
2013-01-01 05:41:00,49.5,47.5,29.80,NE,45,2.5,8.1,93,0.00,,,0.11,WUHU216HW,2013-01-01 11:41:00,
2013-01-01 05:46:00,49.5,47.5,29.79,North,0,1.6,8.1,93,0.00,,,0.11,WUHU216HW,2013-01-01 11:46:00,
2013-01-01 05:51:00,49.3,47.3,29.80,NE,45,1.6,5.1,93,0.00,,,0.11,WUHU216HW,2013-01-01 11:51:00,
2013-01-01 05:56:00,49.3,47.3,29.80,NNE,23,4.3,7.8,93,0.00,,,0.11,WUHU216HW,2013-01-01 11:56:00,
2013-01-01 06:01:00,49.3,47.3,29.80,East,90,1.8,7.8,93,0.00,,,0.11,WUHU216HW,2013-01-01 12:01:00,
2013-01-01 06:06:00,49.1,47.2,29.80,NE,45,1.6,4.7,93,0.00,,,0.11,WUHU216HW,2013-01-01 12:06:00,
2013-01-01 06:11:00,49.1,47.2,29.81,North,0,5.6,5.8,93,0.00,,,0.11,WUHU216HW,2013-01-01 12:11:00,
2013-01-01 06:16:00,49.0,47.0,29.81,North,0,2.7,7.8,93,0.00,,,0.11,WUHU216HW,2013-01-01 12:16:00,
2013-01-01 06:21:00,49.0,47.4,29.81,North,0,5.4,7.8,94,0.00,,,0.11,WUHU216HW,2013-01-01 12:21:00,
2013-01-01 06:26:00,49.0,47.4,29.82,NNE,23,1.6,8.3,94,0.00,,,0.11,WUHU216HW,2013-01-01 12:26:00,
2013-01-01 06:31:00,49.0,47.4,29.81,NNE,23,2.2,8.3,94,0.00,,,0.11,WUHU216HW,2013-01-01 12:31:00,
2013-01-01 06:36:00,49.0,47.4,29.81,NE,45,3.4,6.9,94,0.00,,,0.11,WUHU216HW,2013-01-01 12:36:00,
2013-01-01 06:41:00,48.8,47.2,29.82,NE,45,1.6,6.9,94,0.00,,,0.11,WUHU216HW,2013-01-01 12:41:00,
2013-01-01 06:46:00,48.8,47.2,29.81,North,0,1.1,5.1,94,0.00,,,0.11,WUHU216HW,2013-01-01 12:46:00,
2013-01-01 06:51:00,48.6,47.0,29.81,ENE,68,3.1,5.6,94,0.00,,,0.11,WUHU216HW,2013-01-01 12:51:00,
2013-01-01 06:56:00,48.6,47.0,29.82,WNW,293,1.8,5.6,94,0.00,,,0.11,WUHU216HW,2013-01-01 12:56:00,
2013-01-01 07:01:00,48.6,47.0,29.82,NNE,23,1.3,6.0,94,0.00,,,0.11,WUHU216HW,2013-01-01 13:01:00,
2013-01-01 07:06:00,48.6,47.0,29.83,NE,45,0.4,6.0,94,0.00,,,0.11,WUHU216HW,2013-01-01 13:06:00,
2013-01-01 07:11:00,48.6,47.0,29.83,North,0,1.3,4.9,94,0.00,,,0.11,WUHU216HW,2013-01-01 13:11:00,
2013-01-01 07:16:00,48.4,46.8,29.83,NNE,23,1.1,4.9,94,0.00,,,0.11,WUHU216HW,2013-01-01 13:16:00,
2013-01-01 07:21:00,48.4,46.8,29.84,NE,45,2.9,3.8,94,0.00,,,0.11,WUHU216HW,2013-01-01 13:21:00,
2013-01-01 07:26:00,48.2,46.6,29.84,NNE,23,2.0,3.8,94,0.00,,,0.11,WUHU216HW,2013-01-01 13:26:00,
2013-01-01 07:31:00,48.2,46.6,29.84,NNE,23,1.8,3.4,94,0.00,,,0.11,WUHU216HW,2013-01-01 13:31:00,
2013-01-01 07:36:00,48.2,46.6,29.84,NE,45,7.4,7.4,94,0.00,,,0.11,WUHU216HW,2013-01-01 13:36:00,
2013-01-01 07:41:00,48.2,46.6,29.85,NNE,23,4.0,7.4,94,0.00,,,0.11,WUHU216HW,2013-01-01 13:41:00,
2013-01-01 07:46:00,48.2,46.6,29.85,NNE,23,4.9,7.4,94,0.00,,,0.11,WUHU216HW,2013-01-01 13:46:00,
2013-01-01 07:51:00,48.2,46.6,29.85,NNE,23,4.0,7.2,94,0.00,,,0.11,WUHU216HW,2013-01-01 13:51:00,
2013-01-01 07:56:00,48.2,46.6,29.85,NNE,23,2.5,6.9,94,0.00,,,0.11,WUHU216HW,2013-01-01 13:56:00,
2013-01-01 08:01:00,48.2,46.6,29.86,North,0,2.5,6.3,94,0.00,,,0.11,WUHU216HW,2013-01-01 14:01:00,
2013-01-01 08:06:00,48.2,46.6,29.87,North,0,2.5,4.5,94,0.00,,,0.11,WUHU216HW,2013-01-01 14:06:00,
2013-01-01 08:11:00,48.2,46.6,29.85,NE,45,5.8,6.9,94,0.00,,,0.11,WUHU216HW,2013-01-01 14:11:00,
2013-01-01 08:16:00,48.2,46.6,29.85,ENE,68,2.9,6.9,94,0.00,,,0.11,WUHU216HW,2013-01-01 14:16:00,
2013-01-01 08:21:00,48.2,46.6,29.86,NE,45,2.5,5.8,94,0.00,,,0.11,WUHU216HW,2013-01-01 14:21:00,
2013-01-01 08:26:00,48.2,46.6,29.87,NNE,23,4.5,4.5,94,0.00,,,0.11,WUHU216HW,2013-01-01 14:26:00,
2013-01-01 08:31:00,48.1,46.4,29.87,NE,45,6.3,7.2,94,0.00,,,0.11,WUHU216HW,2013-01-01 14:31:00,
2013-01-01 08:36:00,47.9,46.3,29.86,ENE,68,5.8,8.3,94,0.00,,,0.11,WUHU216HW,2013-01-01 14:36:00,
2013-01-01 08:41:00,47.7,45.5,29.86,NNE,23,6.5,8.7,92,0.00,,,0.11,WUHU216HW,2013-01-01 14:41:00,
2013-01-01 08:46:00,47.7,45.5,29.87,ENE,68,6.7,9.2,92,0.00,,,0.11,WUHU216HW,2013-01-01 14:46:00,
2013-01-01 08:51:00,47.5,45.4,29.88,NNE,23,9.8,9.8,92,0.00,,,0.11,WUHU216HW,2013-01-01 14:51:00,
2013-01-01 08:56:00,47.3,45.2,29.88,NE,45,4.0,9.8,92,0.00,,,0.11,WUHU216HW,2013-01-01 14:56:00,
2013-01-01 09:01:00,47.5,45.4,29.88,NNE,23,7.6,9.8,92,0.00,,,0.11,WUHU216HW,2013-01-01 15:01:00,
2013-01-01 09:06:00,47.2,44.7,29.89,NNE,23,10.5,11.4,91,0.00,,,0.11,WUHU216HW,2013-01-01 15:06:00,
2013-01-01 09:11:00,47.2,44.7,29.89,North,0,11.4,12.1,91,0.00,,,0.11,WUHU216HW,2013-01-01 15:11:00,
2013-01-01 09:16:00,47.0,44.6,29.89,NNE,23,6.5,12.3,91,0.00,,,0.11,WUHU216HW,2013-01-01 15:16:00,
2013-01-01 09:21:00,47.2,44.7,29.90,NNE,23,13.6,13.6,91,0.00,,,0.11,WUHU216HW,2013-01-01 15:21:00,
2013-01-01 09:26:00,47.2,44.7,29.90,NNE,23,4.0,13.6,91,0.00,,,0.11,WUHU216HW,2013-01-01 15:26:00,
2013-01-01 09:31:00,47.2,44.7,29.91,North,0,6.3,13.6,91,0.00,,,0.11,WUHU216HW,2013-01-01 15:31:00,
2013-01-01 09:36:00,47.2,44.5,29.91,ENE,68,4.7,9.4,90,0.00,,,0.11,WUHU216HW,2013-01-01 15:36:00,
2013-01-01 09:41:00,47.0,44.3,29.91,NNE,23,6.7,12.3,90,0.00,,,0.11,WUHU216HW,2013-01-01 15:41:00,
2013-01-01 09:46:00,47.0,44.3,29.91,NNE,23,7.6,12.3,90,0.00,,,0.11,WUHU216HW,2013-01-01 15:46:00,
2013-01-01 09:51:00,47.0,44.3,29.92,NE,45,6.9,11.4,90,0.00,,,0.11,WUHU216HW,2013-01-01 15:51:00,
2013-01-01 09:56:00,47.0,44.3,29.92,NNE,23,10.5,10.5,90,0.00,,,0.11,WUHU216HW,2013-01-01 15:56:00,
2013-01-01 10:01:00,47.2,44.5,29.93,NE,45,6.9,12.1,90,0.00,,,0.11,WUHU216HW,2013-01-01 16:01:00,
2013-01-01 10:06:00,47.2,44.2,29.93,NNE,23,6.9,12.1,89,0.00,,,0.11,WUHU216HW,2013-01-01 16:06:00,
2013-01-01 10:11:00,47.2,44.2,29.93,NE,45,8.7,11.6,89,0.00,,,0.11,WUHU216HW,2013-01-01 16:11:00,
2013-01-01 10:16:00,47.2,44.2,29.93,NNE,23,4.0,11.0,89,0.00,,,0.11,WUHU216HW,2013-01-01 16:16:00,
2013-01-01 10:21:00,47.3,44.0,29.93,NE,45,10.7,16.3,88,0.00,,,0.11,WUHU216HW,2013-01-01 16:21:00,
2013-01-01 10:26:00,47.3,44.0,29.93,East,90,3.8,16.3,88,0.00,,,0.11,WUHU216HW,2013-01-01 16:26:00,
2013-01-01 10:31:00,47.5,43.8,29.93,North,0,4.7,12.1,87,0.00,,,0.11,WUHU216HW,2013-01-01 16:31:00,
2013-01-01 10:36:00,47.5,43.8,29.93,NNE,23,8.1,11.4,87,0.00,,,0.11,WUHU216HW,2013-01-01 16:36:00,
2013-01-01 10:41:00,47.3,43.7,29.93,NNE,23,5.6,11.4,87,0.00,,,0.11,WUHU216HW,2013-01-01 16:41:00,
2013-01-01 10:46:00,47.5,43.8,29.92,NNE,23,6.9,11.0,87,0.00,,,0.11,WUHU216HW,2013-01-01 16:46:00,
2013-01-01 10:51:00,47.5,43.8,29.92,NE,45,4.9,12.5,87,0.00,,,0.11,WUHU216HW,2013-01-01 16:51:00,
2013-01-01 10:56:00,47.5,43.6,29.92,NNE,23,6.5,17.7,86,0.00,,,0.11,WUHU216HW,2013-01-01 16:56:00,
2013-01-01 11:01:00,47.5,43.6,29.92,NNE,23,11.6,17.7,86,0.00,,,0.11,WUHU216HW,2013-01-01 17:01:00,
2013-01-01 11:06:00,47.7,43.8,29.93,NNE,23,7.6,14.3,86,0.00,,,0.11,WUHU216HW,2013-01-01 17:06:00,
2013-01-01 11:11:00,47.9,43.6,29.93,North,0,10.5,13.9,85,0.00,,,0.11,WUHU216HW,2013-01-01 17:11:00,
2013-01-01 11:16:00,48.2,43.9,29.93,NNE,23,7.2,14.8,85,0.00,,,0.11,WUHU216HW,2013-01-01 17:16:00,
2013-01-01 11:21:00,48.1,43.1,29.93,NE,45,6.3,15.7,83,0.00,,,0.11,WUHU216HW,2013-01-01 17:21:00,
2013-01-01 11:26:00,48.4,44.1,29.92,NNE,23,9.8,15.7,85,0.00,,,0.11,WUHU216HW,2013-01-01 17:26:00,
2013-01-01 11:31:00,49.0,44.0,29.92,NNE,23,11.2,11.2,83,0.00,,,0.11,WUHU216HW,2013-01-01 17:31:00,
2013-01-01 11:36:00,48.8,44.1,29.92,NNE,23,9.4,12.1,84,0.00,,,0.11,WUHU216HW,2013-01-01 17:36:00,
2013-01-01 11:41:00,48.8,43.8,29.92,NE,45,7.8,13.9,83,0.00,,,0.11,WUHU216HW,2013-01-01 17:41:00,
2013-01-01 11:46:00,48.8,43.8,29.91,North,0,11.4,13.9,83,0.00,,,0.11,WUHU216HW,2013-01-01 17:46:00,
2013-01-01 11:51:00,48.8,43.8,29.91,North,0,10.1,15.4,83,0.00,,,0.11,WUHU216HW,2013-01-01 17:51:00,
2013-01-01 11:56:00,49.0,44.0,29.91,NNE,23,9.6,15.4,83,0.00,,,0.11,WUHU216HW,2013-01-01 17:56:00,
2013-01-01 12:01:00,49.0,44.0,29.92,NNE,23,7.8,13.4,83,0.00,,,0.11,WUHU216HW,2013-01-01 18:01:00,
2013-01-01 12:06:00,49.0,44.0,29.93,North,0,5.6,13.2,83,0.00,,,0.11,WUHU216HW,2013-01-01 18:06:00,
2013-01-01 12:11:00,49.0,44.0,29.91,North,0,4.0,13.2,83,0.00,,,0.11,WUHU216HW,2013-01-01 18:11:00,
2013-01-01 12:16:00,49.1,43.8,29.91,NNE,23,10.1,13.2,82,0.00,,,0.11,WUHU216HW,2013-01-01 18:16:00,
2013-01-01 12:21:00,48.8,43.8,29.92,North,0,13.9,16.6,83,0.00,,,0.11,WUHU216HW,2013-01-01 18:21:00,
2013-01-01 12:26:00,48.4,43.5,29.92,NNE,23,4.0,16.6,83,0.00,,,0.11,WUHU216HW,2013-01-01 18:26:00,
2013-01-01 12:31:00,48.2,43.6,29.91,NNW,338,2.0,16.1,84,0.00,,,0.11,WUHU216HW,2013-01-01 18:31:00,
2013-01-01 12:36:00,48.1,43.5,29.91,NNE,23,6.9,10.7,84,0.00,,,0.11,WUHU216HW,2013-01-01 18:36:00,
2013-01-01 12:41:00,48.1,43.5,29.91,NNW,338,6.9,10.7,84,0.00,,,0.11,WUHU216HW,2013-01-01 18:41:00,
2013-01-01 12:46:00,47.9,43.6,29.91,North,0,4.7,13.2,85,0.00,,,0.11,WUHU216HW,2013-01-01 18:46:00,
2013-01-01 12:51:00,47.5,42.9,29.90,NNE,23,10.7,13.2,84,0.00,,,0.11,WUHU216HW,2013-01-01 18:51:00,
2013-01-01 12:56:00,47.3,42.8,29.91,North,0,3.1,10.7,84,0.00,,,0.11,WUHU216HW,2013-01-01 18:56:00,
2013-01-01 13:01:00,47.2,42.9,29.90,North,0,4.7,10.7,85,0.00,,,0.11,WUHU216HW,2013-01-01 19:01:00,
2013-01-01 13:06:00,47.2,42.9,29.91,NNE,23,7.2,12.5,85,0.00,,,0.11,WUHU216HW,2013-01-01 19:06:00,
2013-01-01 13:11:00,47.2,42.9,29.90,NNE,23,6.9,12.5,85,0.00,,,0.11,WUHU216HW,2013-01-01 19:11:00,
2013-01-01 13:16:00,47.2,42.9,29.90,NNE,23,3.6,11.4,85,0.00,,,0.11,WUHU216HW,2013-01-01 19:16:00,
2013-01-01 13:21:00,47.3,43.0,29.90,NE,45,1.3,7.8,85,0.00,,,0.11,WUHU216HW,2013-01-01 19:21:00,
2013-01-01 13:26:00,47.3,42.5,29.89,NNE,23,3.4,12.1,83,0.00,,,0.11,WUHU216HW,2013-01-01 19:26:00,
2013-01-01 13:31:00,47.2,42.6,29.89,NNE,23,9.8,12.1,84,0.00,,,0.11,WUHU216HW,2013-01-01 19:31:00,
2013-01-01 13:36:00,46.8,42.0,29.89,NNE,23,9.2,14.5,83,0.00,,,0.11,WUHU216HW,2013-01-01 19:36:00,
2013-01-01 13:41:00,46.8,42.0,29.90,North,0,5.1,14.5,83,0.00,,,0.11,WUHU216HW,2013-01-01 19:41:00,
2013-01-01 13:46:00,46.8,42.0,29.90,NE,45,9.6,11.2,83,0.00,,,0.11,WUHU216HW,2013-01-01 19:46:00,
2013-01-01 13:51:00,46.8,42.2,29.90,NW,315,5.8,11.0,84,0.00,,,0.11,WUHU216HW,2013-01-01 19:51:00,
2013-01-01 13:56:00,46.6,41.8,29.90,NNE,23,5.4,11.6,83,0.00,,,0.11,WUHU216HW,2013-01-01 19:56:00,
2013-01-01 14:01:00,46.4,41.6,29.90,North,0,2.5,11.6,83,0.00,,,0.11,WUHU216HW,2013-01-01 20:01:00,
2013-01-01 14:06:00,46.4,41.6,29.90,North,0,5.1,10.3,83,0.00,,,0.11,WUHU216HW,2013-01-01 20:06:00,
2013-01-01 14:11:00,46.4,41.6,29.90,NNW,338,2.2,10.3,83,0.00,,,0.11,WUHU216HW,2013-01-01 20:11:00,
2013-01-01 14:16:00,46.4,42.0,29.89,North,0,4.0,6.9,84,0.00,,,0.11,WUHU216HW,2013-01-01 20:16:00,
2013-01-01 14:21:00,46.4,41.6,29.89,North,0,4.0,5.8,83,0.00,,,0.11,WUHU216HW,2013-01-01 20:21:00,
2013-01-01 14:26:00,46.4,41.6,29.89,NNW,338,3.6,6.3,83,0.00,,,0.11,WUHU216HW,2013-01-01 20:26:00,
2013-01-01 14:31:00,46.4,41.6,29.89,North,0,3.1,6.3,83,0.00,,,0.11,WUHU216HW,2013-01-01 20:31:00,
2013-01-01 14:36:00,46.6,41.8,29.89,NNW,338,3.1,6.5,83,0.00,,,0.11,WUHU216HW,2013-01-01 20:36:00,
2013-01-01 14:41:00,46.8,41.6,29.89,NNE,23,6.3,8.5,82,0.00,,,0.11,WUHU216HW,2013-01-01 20:41:00,
2013-01-01 14:46:00,47.0,42.1,29.89,NNW,338,4.0,8.5,83,0.00,,,0.11,WUHU216HW,2013-01-01 20:46:00,
2013-01-01 14:51:00,47.3,42.1,29.90,NW,315,0.9,6.5,82,0.00,,,0.11,WUHU216HW,2013-01-01 20:51:00,
2013-01-01 14:56:00,47.5,42.3,29.89,NNW,338,2.5,5.4,82,0.00,,,0.11,WUHU216HW,2013-01-01 20:56:00,
2013-01-01 15:01:00,47.5,41.7,29.89,NNE,23,2.5,8.9,80,0.00,,,0.11,WUHU216HW,2013-01-01 21:01:00,
2013-01-01 15:06:00,47.9,42.3,29.90,NNW,338,3.4,8.9,81,0.00,,,0.11,WUHU216HW,2013-01-01 21:06:00,
2013-01-01 15:11:00,47.9,41.9,29.90,NNE,23,3.8,8.3,80,0.00,,,0.11,WUHU216HW,2013-01-01 21:11:00,
2013-01-01 15:16:00,47.9,42.3,29.90,NNE,23,2.2,4.7,81,0.00,,,0.11,WUHU216HW,2013-01-01 21:16:00,
2013-01-01 15:21:00,47.9,42.3,29.90,NW,315,2.5,5.4,81,0.00,,,0.11,WUHU216HW,2013-01-01 21:21:00,
2013-01-01 15:26:00,48.1,42.5,29.89,NNW,338,1.3,5.4,81,0.00,,,0.11,WUHU216HW,2013-01-01 21:26:00,
2013-01-01 15:31:00,48.4,43.1,29.89,North,0,1.6,4.0,82,0.00,,,0.11,WUHU216HW,2013-01-01 21:31:00,
2013-01-01 15:36:00,48.4,42.9,29.90,North,0,3.4,8.3,81,0.00,,,0.11,WUHU216HW,2013-01-01 21:36:00,
2013-01-01 15:41:00,48.6,43.3,29.90,NW,315,5.4,8.3,82,0.00,,,0.11,WUHU216HW,2013-01-01 21:41:00,
2013-01-01 15:46:00,48.8,43.2,29.90,NNW,338,3.6,5.8,81,0.00,,,0.11,WUHU216HW,2013-01-01 21:46:00,
2013-01-01 15:51:00,49.0,43.0,29.90,North,0,2.2,5.8,80,0.00,,,0.11,WUHU216HW,2013-01-01 21:51:00,
2013-01-01 15:56:00,49.3,43.4,29.90,North,0,1.1,8.5,80,0.00,,,0.11,WUHU216HW,2013-01-01 21:56:00,
2013-01-01 16:01:00,49.5,43.6,29.90,North,0,2.5,8.5,80,0.00,,,0.11,WUHU216HW,2013-01-01 22:01:00,
2013-01-01 16:06:00,49.5,43.2,29.91,North,0,2.5,4.3,79,0.00,,,0.11,WUHU216HW,2013-01-01 22:06:00,
2013-01-01 16:11:00,49.3,42.7,29.92,North,0,5.8,8.7,78,0.00,,,0.11,WUHU216HW,2013-01-01 22:11:00,
2013-01-01 16:16:00,49.5,42.8,29.90,North,0,5.8,8.7,78,0.00,,,0.11,WUHU216HW,2013-01-01 22:16:00,
2013-01-01 16:21:00,49.5,41.9,29.90,North,0,6.0,8.5,75,0.00,,,0.11,WUHU216HW,2013-01-01 22:21:00,
2013-01-01 16:26:00,49.3,42.0,29.91,NNE,23,4.0,8.5,76,0.00,,,0.11,WUHU216HW,2013-01-01 22:26:00,
2013-01-01 16:31:00,49.3,42.0,29.91,NNE,23,5.4,8.9,76,0.00,,,0.11,WUHU216HW,2013-01-01 22:31:00,
2013-01-01 16:36:00,49.3,42.4,29.90,NNE,23,2.0,8.9,77,0.00,,,0.11,WUHU216HW,2013-01-01 22:36:00,
2013-01-01 16:41:00,49.3,42.4,29.91,NNW,338,4.0,7.6,77,0.00,,,0.11,WUHU216HW,2013-01-01 22:41:00,
2013-01-01 16:46:00,49.1,41.9,29.91,North,0,6.0,6.9,76,0.00,,,0.11,WUHU216HW,2013-01-01 22:46:00,
2013-01-01 16:51:00,49.1,42.2,29.91,NNE,23,3.1,6.0,77,0.00,,,0.11,WUHU216HW,2013-01-01 22:51:00,
2013-01-01 16:56:00,49.0,41.7,29.91,North,0,4.0,6.3,76,0.00,,,0.11,WUHU216HW,2013-01-01 22:56:00,
2013-01-01 17:01:00,49.0,41.7,29.91,NE,45,2.2,8.5,76,0.00,,,0.11,WUHU216HW,2013-01-01 23:01:00,
2013-01-01 17:06:00,49.0,42.0,29.91,NNE,23,2.5,8.5,77,0.00,,,0.11,WUHU216HW,2013-01-01 23:06:00,
2013-01-01 17:11:00,48.8,41.1,29.91,ENE,68,8.5,9.2,75,0.00,,,0.11,WUHU216HW,2013-01-01 23:11:00,
2013-01-01 17:16:00,48.8,41.5,29.91,NNE,23,1.1,9.2,76,0.00,,,0.11,WUHU216HW,2013-01-01 23:16:00,
2013-01-01 17:21:00,48.6,41.3,29.91,North,0,1.8,8.5,76,0.00,,,0.11,WUHU216HW,2013-01-01 23:21:00,
2013-01-01 17:26:00,48.4,41.1,29.92,NE,45,4.5,8.1,76,0.00,,,0.11,WUHU216HW,2013-01-01 23:26:00,
2013-01-01 17:31:00,48.2,41.0,29.92,NNE,23,4.0,6.0,76,0.00,,,0.11,WUHU216HW,2013-01-01 23:31:00,
2013-01-01 17:36:00,47.9,40.6,29.92,NE,45,1.1,6.0,76,0.00,,,0.11,WUHU216HW,2013-01-01 23:36:00,
2013-01-01 17:41:00,47.7,40.8,29.92,North,0,1.1,4.9,77,0.00,,,0.11,WUHU216HW,2013-01-01 23:41:00,
2013-01-01 17:46:00,47.3,40.8,29.92,NNE,23,1.8,3.4,78,0.00,,,0.11,WUHU216HW,2013-01-01 23:46:00,
2013-01-01 17:51:00,47.0,40.5,29.92,NNE,23,1.6,3.1,78,0.00,,,0.11,WUHU216HW,2013-01-01 23:51:00,
2013-01-01 17:56:00,46.8,40.0,29.91,NNE,23,2.0,3.4,77,0.00,,,0.11,WUHU216HW,2013-01-01 23:56:00,
2013-01-01 18:01:00,46.4,40.0,29.92,NNE,23,0.9,3.4,78,0.00,,,0.11,WUHU216HW,2013-01-02 00:01:00,
2013-01-01 18:06:00,46.4,40.3,29.91,NE,45,1.1,2.5,79,0.00,,,0.11,WUHU216HW,2013-01-02 00:06:00,
2013-01-01 18:11:00,46.1,40.0,29.92,NE,45,0.2,2.5,79,0.00,,,0.11,WUHU216HW,2013-01-02 00:11:00,
2013-01-01 18:16:00,45.9,39.8,29.92,ENE,68,2.5,2.5,79,0.00,,,0.11,WUHU216HW,2013-01-02 00:16:00,
2013-01-01 18:21:00,45.7,39.6,29.93,NNE,23,0.4,2.5,79,0.00,,,0.11,WUHU216HW,2013-01-02 00:21:00,
2013-01-01 18:26:00,45.5,39.8,29.93,NNE,23,1.1,2.7,80,0.00,,,0.11,WUHU216HW,2013-01-02 00:26:00,
2013-01-01 18:31:00,45.4,39.6,29.93,ENE,68,1.8,2.7,80,0.00,,,0.11,WUHU216HW,2013-01-02 00:31:00,
2013-01-01 18:36:00,45.2,39.4,29.93,ENE,68,0.4,2.2,80,0.00,,,0.11,WUHU216HW,2013-01-02 00:36:00,
2013-01-01 18:41:00,45.0,39.5,29.93,NE,45,1.1,2.5,81,0.00,,,0.11,WUHU216HW,2013-01-02 00:41:00,
2013-01-01 18:46:00,45.2,39.7,29.93,NE,45,3.4,4.3,81,0.00,,,0.11,WUHU216HW,2013-01-02 00:46:00,
2013-01-01 18:51:00,45.2,39.7,29.94,NE,45,0.7,4.3,81,0.00,,,0.11,WUHU216HW,2013-01-02 00:51:00,
2013-01-01 18:56:00,45.0,39.5,29.94,NE,45,4.7,4.7,81,0.00,,,0.11,WUHU216HW,2013-01-02 00:56:00,
2013-01-01 19:01:00,45.0,39.5,29.94,ENE,68,3.6,4.7,81,0.00,,,0.11,WUHU216HW,2013-01-02 01:01:00,
2013-01-01 19:06:00,45.0,39.5,29.95,ENE,68,1.8,4.7,81,0.00,,,0.11,WUHU216HW,2013-01-02 01:06:00,
2013-01-01 19:11:00,45.0,39.5,29.94,NE,45,3.1,4.0,81,0.00,,,0.11,WUHU216HW,2013-01-02 01:11:00,
2013-01-01 19:16:00,44.8,39.3,29.95,NNE,23,1.8,3.4,81,0.00,,,0.11,WUHU216HW,2013-01-02 01:16:00,
2013-01-01 19:21:00,44.6,39.2,29.95,NE,45,0.9,3.1,81,0.00,,,0.11,WUHU216HW,2013-01-02 01:21:00,
2013-01-01 19:26:00,44.6,39.2,29.95,NNE,23,2.2,4.5,81,0.00,,,0.11,WUHU216HW,2013-01-02 01:26:00,
2013-01-01 19:31:00,44.5,39.0,29.95,NNE,23,1.8,4.7,81,0.00,,,0.11,WUHU216HW,2013-01-02 01:31:00,
2013-01-01 19:36:00,44.3,38.8,29.95,NE,45,0.9,4.7,81,0.00,,,0.11,WUHU216HW,2013-01-02 01:36:00,
2013-01-01 19:41:00,44.3,38.8,29.96,NE,45,0.7,4.5,81,0.00,,,0.11,WUHU216HW,2013-01-02 01:41:00,
2013-01-01 19:46:00,44.1,38.6,29.96,NNE,23,2.5,3.4,81,0.00,,,0.11,WUHU216HW,2013-01-02 01:46:00,
2013-01-01 19:51:00,43.9,38.4,29.96,NE,45,2.7,4.7,81,0.00,,,0.11,WUHU216HW,2013-01-02 01:51:00,
2013-01-01 19:56:00,43.7,38.3,29.96,ENE,68,2.5,4.7,81,0.00,,,0.11,WUHU216HW,2013-01-02 01:56:00,
2013-01-01 20:01:00,43.7,38.3,29.96,ENE,68,1.1,4.5,81,0.00,,,0.11,WUHU216HW,2013-01-02 02:01:00,
2013-01-01 20:06:00,43.6,38.1,29.96,NE,45,2.5,4.5,81,0.00,,,0.11,WUHU216HW,2013-01-02 02:06:00,
2013-01-01 20:11:00,43.6,38.1,29.96,NE,45,0.7,4.5,81,0.00,,,0.11,WUHU216HW,2013-01-02 02:11:00,
2013-01-01 20:16:00,43.4,37.9,29.96,NNE,23,1.8,4.0,81,0.00,,,0.11,WUHU216HW,2013-01-02 02:16:00,
2013-01-01 20:21:00,43.2,37.7,29.97,ENE,68,1.6,3.6,81,0.00,,,0.11,WUHU216HW,2013-01-02 02:21:00,
2013-01-01 20:26:00,43.2,37.7,29.97,NNE,23,1.6,3.4,81,0.00,,,0.11,WUHU216HW,2013-01-02 02:26:00,
2013-01-01 20:31:00,43.2,37.7,29.97,NE,45,3.6,3.6,81,0.00,,,0.11,WUHU216HW,2013-01-02 02:31:00,
2013-01-01 20:36:00,43.0,37.5,29.97,NE,45,1.3,3.6,81,0.00,,,0.11,WUHU216HW,2013-01-02 02:36:00,
2013-01-01 20:41:00,42.8,37.4,29.97,NE,45,1.3,3.6,81,0.00,,,0.11,WUHU216HW,2013-01-02 02:41:00,
2013-01-01 20:46:00,42.8,37.4,29.97,NE,45,2.7,3.4,81,0.00,,,0.11,WUHU216HW,2013-01-02 02:46:00,
2013-01-01 20:51:00,42.7,37.5,29.97,NNE,23,0.4,5.4,82,0.00,,,0.11,WUHU216HW,2013-01-02 02:51:00,
2013-01-01 20:56:00,42.5,37.4,29.97,NE,45,1.1,5.4,82,0.00,,,0.11,WUHU216HW,2013-01-02 02:56:00,
2013-01-01 21:01:00,42.3,37.2,29.97,NE,45,0.4,2.9,82,0.00,,,0.11,WUHU216HW,2013-01-02 03:01:00,
2013-01-01 21:06:00,42.3,37.2,29.97,East,90,1.1,2.9,82,0.00,,,0.11,WUHU216HW,2013-01-02 03:06:00,
2013-01-01 21:11:00,42.1,37.3,29.97,NNE,23,2.5,2.9,83,0.00,,,0.11,WUHU216HW,2013-01-02 03:11:00,
2013-01-01 21:16:00,41.9,37.1,29.96,NNE,23,0.7,2.9,83,0.00,,,0.11,WUHU216HW,2013-01-02 03:16:00,
2013-01-01 21:21:00,41.8,36.9,29.97,NE,45,0.2,2.5,83,0.00,,,0.11,WUHU216HW,2013-01-02 03:21:00,
2013-01-01 21:26:00,41.6,36.5,29.97,NE,45,0.0,1.1,82,0.00,,,0.11,WUHU216HW,2013-01-02 03:26:00,
2013-01-01 21:31:00,41.4,36.3,29.97,NE,45,0.9,1.3,82,0.00,,,0.11,WUHU216HW,2013-01-02 03:31:00,
2013-01-01 21:36:00,41.4,36.3,29.97,NE,45,0.4,1.8,82,0.00,,,0.11,WUHU216HW,2013-01-02 03:36:00,
2013-01-01 21:41:00,41.2,36.1,29.97,NNE,23,2.0,2.0,82,0.00,,,0.11,WUHU216HW,2013-01-02 03:41:00,
2013-01-01 21:46:00,41.0,36.2,29.97,NNE,23,3.4,3.4,83,0.00,,,0.11,WUHU216HW,2013-01-02 03:46:00,
2013-01-01 21:51:00,41.0,36.2,29.98,NE,45,2.5,3.8,83,0.00,,,0.11,WUHU216HW,2013-01-02 03:51:00,
2013-01-01 21:56:00,40.9,36.0,29.98,North,0,1.8,4.7,83,0.00,,,0.11,WUHU216HW,2013-01-02 03:56:00,
2013-01-01 22:01:00,40.9,36.0,29.98,NNE,23,2.9,5.4,83,0.00,,,0.11,WUHU216HW,2013-01-02 04:01:00,
2013-01-01 22:06:00,40.7,36.2,29.98,NNE,23,3.1,5.4,84,0.00,,,0.11,WUHU216HW,2013-01-02 04:06:00,
2013-01-01 22:11:00,40.7,35.8,29.98,NNE,23,2.0,8.9,83,0.00,,,0.11,WUHU216HW,2013-01-02 04:11:00,
2013-01-01 22:16:00,40.7,35.8,29.97,North,0,3.4,8.9,83,0.00,,,0.11,WUHU216HW,2013-01-02 04:16:00,
2013-01-01 22:21:00,40.7,35.8,29.97,NNE,23,4.5,5.4,83,0.00,,,0.11,WUHU216HW,2013-01-02 04:21:00,
2013-01-01 22:26:00,40.7,35.8,29.98,NNE,23,3.8,5.4,83,0.00,,,0.11,WUHU216HW,2013-01-02 04:26:00,
2013-01-01 22:31:00,40.5,35.7,29.98,NNE,23,4.0,5.4,83,0.00,,,0.11,WUHU216HW,2013-01-02 04:31:00,
2013-01-01 22:36:00,40.3,35.6,29.98,NNE,23,4.7,6.9,83,0.00,,,0.11,WUHU216HW,2013-01-02 04:36:00,
2013-01-01 22:41:00,40.3,35.2,29.98,North,0,6.0,8.3,82,0.00,,,0.11,WUHU216HW,2013-01-02 04:41:00,
2013-01-01 22:46:00,40.3,35.2,29.99,NNE,23,2.0,8.3,82,0.00,,,0.11,WUHU216HW,2013-01-02 04:46:00,
2013-01-01 22:51:00,40.3,35.6,29.98,NNE,23,1.1,6.9,83,0.00,,,0.11,WUHU216HW,2013-01-02 04:51:00,
2013-01-01 22:56:00,40.3,35.2,29.99,ENE,68,1.8,6.7,82,0.00,,,0.11,WUHU216HW,2013-01-02 04:56:00,
2013-01-01 23:00:00,40.1,35.1,29.99,NE,45,4.9,6.7,82,0.00,,,0.11,WUHU216HW,2013-01-02 05:00:00,
2013-01-01 23:05:00,40.1,35.1,29.99,NE,45,4.0,6.5,82,0.00,,,0.11,WUHU216HW,2013-01-02 05:05:00,
2013-01-01 23:10:00,40.0,34.9,29.99,NE,45,2.5,6.0,82,0.00,,,0.11,WUHU216HW,2013-01-02 05:10:00,
2013-01-01 23:15:00,40.0,34.6,29.99,NNE,23,6.3,6.3,81,0.00,,,0.11,WUHU216HW,2013-01-02 05:15:00,
2013-01-01 23:20:00,40.0,34.6,29.99,NNE,23,5.1,8.3,81,0.00,,,0.11,WUHU216HW,2013-01-02 05:20:00,
2013-01-01 23:25:00,40.0,33.9,29.99,NNE,23,10.5,11.2,79,0.00,,,0.11,WUHU216HW,2013-01-02 05:25:00,
2013-01-01 23:30:00,40.0,33.9,29.99,NNE,23,7.8,11.4,79,0.00,,,0.11,WUHU216HW,2013-01-02 05:30:00,
2013-01-01 23:35:00,39.8,33.9,29.99,ENE,68,9.6,11.4,79,0.00,,,0.11,WUHU216HW,2013-01-02 05:35:00,
2013-01-01 23:40:00,39.8,33.5,29.99,ENE,68,9.4,9.6,78,0.00,,,0.11,WUHU216HW,2013-01-02 05:40:00,
2013-01-01 23:45:00,39.8,33.9,29.98,North,0,10.3,12.1,79,0.00,,,0.11,WUHU216HW,2013-01-02 05:45:00,
2013-01-01 23:50:00,39.6,33.7,29.99,NE,45,4.7,12.1,79,0.00,,,0.11,WUHU216HW,2013-01-02 05:50:00,
2013-01-01 23:55:00,39.4,33.5,29.98,NE,45,4.3,10.3,79,0.00,,,0.11,WUHU216HW,2013-01-02 05:55:00,